Time;durP1;ratioP1;P1;durP2;ratioP2;P2;SDS_P1;SDS_P2;PMS_P1;PMS_P2;Temp;Humidity;BMP_temperature;BMP_pressure;BME280_temperature;BME280_humidity;BME280_pressure;Samples;Min_cycle;Max_cycle;Signal;HPM_P1;HPM_P2
2023/12/25 00:01:06;;;;;;;1.25;0.93;;;9.30;99.90;;;;;;4988827;28;20589;-77
2023/12/25 00:03:33;;;;;;;1.52;0.85;;;9.30;99.90;;;;;;4988617;28;20220;-76
2023/12/25 00:06:01;;;;;;;0.80;0.70;;;9.30;99.90;;;;;;4988575;28;20555;-76
2023/12/25 00:08:27;;;;;;;1.00;0.75;;;9.30;99.90;;;;;;4987506;28;20200;-75
2023/12/25 00:10:54;;;;;;;1.20;1.10;;;9.30;99.90;;;;;;4987857;28;20244;-76
2023/12/25 00:13:21;;;;;;;1.10;0.88;;;9.30;99.90;;;;;;4989220;28;20204;-77
2023/12/25 04:32:05;;;;;;;0.95;0.80;;;9.10;99.90;;;;;;5381047;23;20233;-92
2023/12/25 04:34:31;;;;;;;0.95;0.85;;;9.10;99.90;;;;;;5032601;28;20260;-92
2023/12/25 04:37:07;;;;;;;0.80;0.70;;;9.10;99.90;;;;;;5033534;28;20216;-93
2023/12/25 04:39:54;;;;;;;1.45;1.30;;;9.00;99.90;;;;;;5036647;28;20212;-93
2023/12/25 04:42:25;;;;;;;0.80;0.70;;;9.00;99.90;;;;;;5036746;28;20212;-93
2023/12/25 04:45:08;;;;;;;0.80;0.68;;;9.00;99.90;;;;;;5036144;28;20221;-93
2023/12/25 04:47:51;;;;;;;1.00;0.90;;;9.00;99.90;;;;;;5033431;28;20190;-94
2023/12/25 04:50:23;;;;;;;0.80;0.70;;;9.10;99.90;;;;;;5034077;28;20208;-92
2023/12/25 04:52:49;;;;;;;1.20;0.77;;;9.00;99.90;;;;;;5048577;22;20185;-77
2023/12/25 04:55:16;;;;;;;0.90;0.80;;;8.90;99.90;;;;;;4999890;28;20235;-78
2023/12/25 04:57:43;;;;;;;0.98;0.73;;;8.90;99.90;;;;;;5000748;28;20208;-78
2023/12/25 05:00:11;;;;;;;0.80;0.77;;;8.90;99.90;;;;;;4999739;28;20204;-77
2023/12/25 05:02:39;;;;;;;1.13;0.90;;;8.90;99.90;;;;;;4980582;28;20230;-77
2023/12/25 05:05:06;;;;;;;0.90;0.77;;;8.90;99.90;;;;;;4980944;28;20683;-77
2023/12/25 05:07:32;;;;;;;1.10;0.80;;;8.90;99.90;;;;;;4980780;28;20212;-77
2023/12/25 05:09:59;;;;;;;1.27;1.17;;;8.90;99.90;;;;;;4979970;28;20208;-76
2023/12/25 05:12:26;;;;;;;1.55;0.80;;;8.80;99.90;;;;;;4981709;28;20229;-77
2023/12/25 05:14:52;;;;;;;0.88;0.80;;;8.90;99.90;;;;;;4981465;28;20284;-77
2023/12/25 05:17:19;;;;;;;1.52;1.13;;;8.90;99.90;;;;;;4979940;28;20212;-77
2023/12/25 05:19:47;;;;;;;0.98;0.80;;;8.90;99.90;;;;;;4980760;28;20209;-77
2023/12/25 05:22:14;;;;;;;1.00;0.90;;;8.90;99.90;;;;;;4978623;28;20320;-77
2023/12/25 05:24:41;;;;;;;1.10;0.90;;;8.90;99.90;;;;;;4975485;28;20208;-75
2023/12/25 05:27:08;;;;;;;0.90;0.80;;;8.90;99.90;;;;;;4974788;28;20210;-75
2023/12/25 05:29:35;;;;;;;0.95;0.75;;;8.80;99.90;;;;;;4975223;28;20212;-76
2023/12/25 05:32:02;;;;;;;1.65;1.10;;;8.90;99.90;;;;;;4975156;28;20225;-76
2023/12/25 05:34:28;;;;;;;0.80;0.70;;;8.80;99.90;;;;;;4975646;28;20202;-76
2023/12/25 05:36:56;;;;;;;1.27;0.90;;;8.90;99.90;;;;;;4977139;28;20230;-76
2023/12/25 05:39:24;;;;;;;0.77;0.70;;;8.80;99.90;;;;;;4976052;28;20214;-77
2023/12/25 05:41:51;;;;;;;0.98;0.80;;;8.80;99.90;;;;;;4976768;28;20234;-77
2023/12/25 05:44:18;;;;;;;1.10;0.70;;;8.80;99.90;;;;;;4977359;28;20216;-77
2023/12/25 05:46:44;;;;;;;1.05;0.88;;;8.80;99.90;;;;;;4977196;28;20200;-77
2023/12/25 05:49:11;;;;;;;1.00;0.90;;;8.80;99.90;;;;;;4977966;28;20214;-77
2023/12/25 05:51:38;;;;;;;0.93;0.80;;;8.70;99.90;;;;;;4976544;28;20237;-77
2023/12/25 05:54:06;;;;;;;1.00;0.70;;;8.70;99.90;;;;;;4990285;28;20215;-77
2023/12/25 05:56:33;;;;;;;1.08;0.98;;;8.70;99.90;;;;;;4999987;28;20277;-77
2023/12/25 05:59:00;;;;;;;2.17;1.08;;;8.70;99.90;;;;;;4996706;28;20215;-77
2023/12/25 06:01:27;;;;;;;1.10;0.90;;;8.70;99.90;;;;;;4998500;28;20228;-77
2023/12/25 06:03:53;;;;;;;1.75;0.95;;;8.60;99.90;;;;;;4997555;28;20688;-77
2023/12/25 06:06:20;;;;;;;1.00;0.75;;;8.60;99.90;;;;;;4998272;28;20219;-78
2023/12/25 06:08:47;;;;;;;0.90;0.77;;;8.60;99.90;;;;;;4997562;28;20639;-77
2023/12/25 06:11:15;;;;;;;1.00;0.90;;;8.50;99.90;;;;;;4995215;28;20232;-78
2023/12/25 06:13:42;;;;;;;1.10;1.00;;;8.60;99.90;;;;;;4989788;28;20596;-78
2023/12/25 06:16:09;;;;;;;0.80;0.70;;;8.60;99.90;;;;;;4998355;28;20224;-78
2023/12/25 06:18:35;;;;;;;2.05;0.93;;;8.60;99.90;;;;;;4997227;28;20204;-78
2023/12/25 06:21:03;;;;;;;0.90;0.80;;;8.60;99.90;;;;;;4995270;28;20233;-78
2023/12/25 06:23:30;;;;;;;0.80;0.70;;;8.60;99.90;;;;;;4994463;28;20206;-76
2023/12/25 06:25:57;;;;;;;0.82;0.70;;;8.50;99.90;;;;;;4995787;28;20212;-76
2023/12/25 06:28:25;;;;;;;1.05;0.95;;;8.50;99.90;;;;;;4996570;28;20203;-75
2023/12/25 06:30:52;;;;;;;0.90;0.80;;;8.50;99.90;;;;;;4997065;28;20225;-78
2023/12/25 06:33:19;;;;;;;0.90;0.70;;;8.50;99.90;;;;;;5002862;28;20218;-78
2023/12/25 06:35:46;;;;;;;1.13;0.90;;;8.50;99.90;;;;;;4999674;28;20223;-78
2023/12/25 06:38:13;;;;;;;1.13;0.75;;;8.50;99.90;;;;;;4994990;28;20295;-79
2023/12/25 06:40:40;;;;;;;1.00;0.90;;;8.40;99.90;;;;;;4997828;28;20290;-79
2023/12/25 06:43:07;;;;;;;1.30;1.20;;;8.40;99.90;;;;;;5003368;28;20215;-78
2023/12/25 06:45:35;;;;;;;1.00;0.90;;;8.40;99.90;;;;;;5004414;28;20207;-79
2023/12/25 06:48:02;;;;;;;1.00;0.90;;;8.40;99.90;;;;;;5003706;28;20213;-79
2023/12/25 06:50:29;;;;;;;0.95;0.75;;;8.40;99.90;;;;;;5010050;28;20221;-79
2023/12/25 06:52:55;;;;;;;0.90;0.75;;;8.40;99.90;;;;;;5002722;28;20217;-79
2023/12/25 06:55:22;;;;;;;0.80;0.70;;;8.20;99.90;;;;;;5004644;28;20208;-79
2023/12/25 06:57:49;;;;;;;1.00;0.80;;;8.30;99.90;;;;;;5002455;28;20212;-79
2023/12/25 07:00:16;;;;;;;1.10;0.90;;;8.40;99.90;;;;;;5000796;28;20214;-80
2023/12/25 07:02:44;;;;;;;1.70;1.60;;;8.30;99.90;;;;;;4991783;28;20207;-77
2023/12/25 07:05:11;;;;;;;2.28;0.88;;;8.30;99.90;;;;;;5000005;28;20207;-78
2023/12/25 07:07:37;;;;;;;0.80;0.70;;;8.30;99.90;;;;;;5001730;28;20214;-79
2023/12/25 07:10:06;;;;;;;1.05;0.80;;;8.30;99.90;;;;;;5004204;28;20219;-78
2023/12/25 07:12:32;;;;;;;1.00;0.90;;;8.20;99.90;;;;;;4998792;28;20256;-77
2023/12/25 07:14:59;;;;;;;0.80;0.70;;;8.30;99.90;;;;;;5002667;28;20218;-76
2023/12/25 07:17:26;;;;;;;1.20;0.98;;;8.20;99.90;;;;;;5000532;28;20228;-77
2023/12/25 07:19:54;;;;;;;2.58;1.02;;;8.20;99.90;;;;;;4999229;28;20692;-77
2023/12/25 07:22:21;;;;;;;1.45;1.00;;;8.20;99.90;;;;;;5016394;28;20223;-79
2023/12/25 07:24:47;;;;;;;0.95;0.80;;;8.20;99.90;;;;;;5014771;28;20212;-80
2023/12/25 07:27:14;;;;;;;1.10;0.90;;;8.30;99.90;;;;;;5016165;28;20188;-79
2023/12/25 07:29:41;;;;;;;1.42;0.90;;;8.20;99.90;;;;;;5009096;28;20659;-77
2023/12/25 07:32:09;;;;;;;1.05;0.95;;;8.30;99.90;;;;;;4994074;28;20314;-77
2023/12/25 07:34:36;;;;;;;1.75;1.17;;;8.30;99.90;;;;;;4994368;28;20665;-77
2023/12/25 07:37:04;;;;;;;1.17;0.93;;;8.30;99.90;;;;;;4994253;28;20224;-76
2023/12/25 07:39:31;;;;;;;0.80;0.80;;;8.30;99.90;;;;;;4994908;28;20221;-77
2023/12/25 07:41:58;;;;;;;1.25;1.02;;;8.30;99.90;;;;;;4994276;28;20225;-77
2023/12/25 07:44:25;;;;;;;1.13;0.98;;;8.30;99.90;;;;;;4995314;28;20589;-77
2023/12/25 07:46:52;;;;;;;1.35;0.82;;;8.30;99.90;;;;;;4994194;28;20216;-77
2023/12/25 07:49:18;;;;;;;1.10;0.90;;;8.30;99.90;;;;;;4994046;28;20554;-77
2023/12/25 07:51:45;;;;;;;1.02;0.90;;;8.40;99.90;;;;;;4993425;28;20227;-77
2023/12/25 07:54:13;;;;;;;1.75;0.90;;;8.40;99.90;;;;;;4994107;28;20307;-77
2023/12/25 07:56:40;;;;;;;1.00;0.90;;;8.40;99.90;;;;;;4992866;28;20220;-77
2023/12/25 07:59:07;;;;;;;0.93;0.82;;;8.50;99.90;;;;;;4993389;28;20211;-77
2023/12/25 08:01:33;;;;;;;0.82;0.73;;;8.40;99.90;;;;;;4992684;28;20579;-77
2023/12/25 08:04:00;;;;;;;1.33;1.23;;;8.50;99.90;;;;;;4992651;28;20232;-77
2023/12/25 08:06:27;;;;;;;1.30;0.93;;;8.50;99.90;;;;;;4992804;28;20205;-77
2023/12/25 08:08:53;;;;;;;1.50;1.02;;;8.50;99.90;;;;;;4992663;28;20221;-77
2023/12/25 08:11:21;;;;;;;1.10;0.90;;;8.60;99.90;;;;;;4992746;28;20229;-76
2023/12/25 08:13:48;;;;;;;1.13;0.90;;;8.60;99.90;;;;;;4992659;28;20212;-77
2023/12/25 08:16:15;;;;;;;0.90;0.80;;;8.70;99.90;;;;;;4992854;28;20232;-79
2023/12/25 08:18:42;;;;;;;1.45;1.08;;;9.00;99.90;;;;;;4992924;28;20209;-77
2023/12/25 08:21:08;;;;;;;0.70;0.60;;;9.20;99.90;;;;;;4991647;28;20233;-75
2023/12/25 08:23:35;;;;;;;1.23;0.95;;;9.20;99.90;;;;;;4995592;28;20213;-76
2023/12/25 08:26:02;;;;;;;1.23;0.77;;;9.10;99.90;;;;;;4991101;28;20213;-76
2023/12/25 08:28:30;;;;;;;1.10;1.00;;;9.00;99.90;;;;;;4991124;28;20277;-76
2023/12/25 08:30:56;;;;;;;1.23;1.05;;;9.00;99.90;;;;;;4991380;28;20222;-76
2023/12/25 08:33:23;;;;;;;1.00;0.80;;;9.00;99.90;;;;;;4999466;28;20213;-75
2023/12/25 08:35:51;;;;;;;1.00;0.90;;;9.00;99.90;;;;;;4999575;28;20201;-76
2023/12/25 08:38:18;;;;;;;1.08;0.85;;;9.00;99.90;;;;;;4999086;28;20313;-76
2023/12/25 08:40:45;;;;;;;1.17;0.90;;;9.10;99.90;;;;;;4991174;28;20226;-76
2023/12/25 08:43:11;;;;;;;0.90;0.80;;;9.10;99.90;;;;;;4999760;28;20577;-75
2023/12/25 08:45:40;;;;;;;1.00;0.90;;;9.10;99.90;;;;;;4994481;28;20215;-76
2023/12/25 08:48:07;;;;;;;1.70;0.90;;;9.10;99.90;;;;;;5010186;28;20196;-75
2023/12/25 08:50:34;;;;;;;1.40;1.00;;;9.10;99.90;;;;;;5001577;28;20232;-75
2023/12/25 08:53:00;;;;;;;1.05;0.95;;;9.20;99.90;;;;;;5004466;28;20209;-76
2023/12/25 08:55:27;;;;;;;1.50;1.10;;;9.30;99.90;;;;;;4990601;28;20213;-76
2023/12/25 08:57:54;;;;;;;0.80;0.70;;;9.40;99.90;;;;;;4990244;28;20216;-76
2023/12/25 09:00:21;;;;;;;1.38;0.98;;;9.50;99.90;;;;;;4989736;28;20218;-76
2023/12/25 09:02:49;;;;;;;1.10;1.00;;;9.70;99.90;;;;;;4990768;28;20214;-75
2023/12/25 09:05:15;;;;;;;1.05;0.95;;;9.80;99.90;;;;;;4992150;28;20212;-77
2023/12/25 09:07:42;;;;;;;2.15;0.80;;;10.00;99.90;;;;;;4990611;28;20203;-77
2023/12/25 09:10:09;;;;;;;1.10;1.00;;;10.00;99.90;;;;;;4990633;28;20210;-77
2023/12/25 09:12:36;;;;;;;1.00;0.90;;;10.20;99.90;;;;;;4989755;28;20320;-77
2023/12/25 09:15:04;;;;;;;1.38;1.05;;;10.10;99.90;;;;;;4990694;28;20579;-77
2023/12/25 09:17:31;;;;;;;1.00;0.90;;;10.20;99.90;;;;;;4987929;28;20223;-77
2023/12/25 09:19:59;;;;;;;0.88;0.77;;;10.30;99.90;;;;;;4983996;28;20221;-77
2023/12/25 09:22:27;;;;;;;1.30;1.20;;;10.20;99.90;;;;;;4988780;28;20242;-77
2023/12/25 09:24:54;;;;;;;1.25;0.98;;;10.20;99.90;;;;;;4989973;28;20727;-77
2023/12/25 09:27:21;;;;;;;1.58;1.10;;;10.20;99.90;;;;;;4989930;28;20203;-77
2023/12/25 09:29:47;;;;;;;1.67;1.25;;;10.20;99.90;;;;;;4988661;28;20605;-77
2023/12/25 09:32:14;;;;;;;1.50;1.00;;;10.40;99.90;;;;;;4989298;28;20234;-76
2023/12/25 09:34:41;;;;;;;2.20;1.02;;;10.70;99.90;;;;;;4980053;28;20242;-77
2023/12/25 09:37:09;;;;;;;1.23;0.85;;;11.10;99.90;;;;;;4969180;28;20234;-77
2023/12/25 09:39:36;;;;;;;1.10;0.88;;;11.90;99.90;;;;;;4990042;28;20310;-77
2023/12/25 09:42:04;;;;;;;1.27;1.17;;;13.10;99.90;;;;;;4991493;28;20234;-77
2023/12/25 09:44:31;;;;;;;1.10;0.93;;;15.00;99.90;;;;;;4982012;28;20246;-77
2023/12/25 09:46:59;;;;;;;1.10;0.90;;;16.80;99.90;;;;;;4988853;28;20468;-77
2023/12/25 09:49:28;;;;;;;0.90;0.80;;;16.50;99.90;;;;;;4982632;28;20461;-76
2023/12/25 09:51:56;;;;;;;1.10;0.80;;;16.30;99.90;;;;;;4975473;28;20501;-76
2023/12/25 09:54:24;;;;;;;0.90;0.80;;;15.80;99.90;;;;;;4985514;28;20468;-77
2023/12/25 09:56:52;;;;;;;1.80;0.90;;;15.40;99.90;;;;;;4988347;28;20485;-77
2023/12/25 09:59:20;;;;;;;0.90;0.73;;;15.10;99.90;;;;;;4994624;28;20948;-77
2023/12/25 10:01:47;;;;;;;1.10;0.90;;;14.70;99.90;;;;;;4994267;28;20485;-77
2023/12/25 10:04:14;;;;;;;0.90;0.77;;;14.50;99.90;;;;;;4993686;28;20468;-77
2023/12/25 10:06:43;;;;;;;0.90;0.80;;;14.40;99.90;;;;;;4998434;28;20967;-77
2023/12/25 10:09:10;;;;;;;0.83;0.77;;;14.40;99.90;;;;;;5005082;28;20955;-77
2023/12/25 10:11:38;;;;;;;2.03;1.30;;;14.60;99.90;;;;;;5000626;28;20493;-77
2023/12/25 10:14:05;;;;;;;1.33;1.03;;;14.90;99.90;;;;;;5000143;28;20462;-77
2023/12/25 10:16:32;;;;;;;1.20;0.93;;;15.60;99.90;;;;;;5012705;28;20483;-77
2023/12/25 10:18:59;;;;;;;0.90;0.83;;;16.10;99.90;;;;;;5002947;28;20466;-77
2023/12/25 10:21:25;;;;;;;1.23;0.80;;;16.40;99.90;;;;;;5007379;28;20493;-77
2023/12/25 10:23:52;;;;;;;1.50;0.80;;;16.10;99.90;;;;;;5011265;28;20898;-77
2023/12/25 10:26:27;;;;;;;1.50;1.00;;;15.90;99.90;;;;;;5016888;28;20465;-77
2023/12/25 10:29:07;;;;;;;0.93;0.83;;;15.80;99.90;;;;;;5006422;28;21024;-77
2023/12/25 10:31:34;;;;;;;1.20;1.00;;;16.10;99.90;;;;;;4994460;28;20485;-77
2023/12/25 10:34:01;;;;;;;1.13;0.97;;;16.30;99.90;;;;;;5001921;28;20477;-77
2023/12/25 10:36:27;;;;;;;1.60;0.87;;;17.10;99.90;;;;;;5000079;28;20462;-77
2023/12/25 10:38:54;;;;;;;1.03;0.93;;;18.30;99.90;;;;;;4999725;28;21001;-77
2023/12/25 10:41:27;;;;;;;1.20;0.90;;;19.50;99.90;;;;;;4999571;28;20801;-77
2023/12/25 10:44:09;;;;;;;1.00;0.83;;;20.30;99.50;;;;;;5003554;28;20810;-77
2023/12/25 10:47:05;;;;;;;1.00;0.80;;;20.50;98.80;;;;;;5001485;28;20558;-77
2023/12/25 10:50:03;;;;;;;0.90;0.80;;;20.90;98.30;;;;;;4994596;28;20953;-77
2023/12/25 10:52:33;;;;;;;0.87;0.77;;;21.50;97.30;;;;;;4998960;28;21066;-77
2023/12/25 10:55:10;;;;;;;1.20;0.90;;;21.90;96.70;;;;;;4994401;28;20820;-77
2023/12/25 10:57:42;;;;;;;1.53;1.20;;;21.80;97.00;;;;;;4993441;28;20493;-77
2023/12/25 11:00:18;;;;;;;1.00;0.90;;;21.70;96.30;;;;;;5004672;28;20469;-78
2023/12/25 11:03:07;;;;;;;1.17;1.00;;;21.40;96.40;;;;;;5000670;28;20494;-77
2023/12/25 11:05:44;;;;;;;0.90;0.80;;;21.50;96.20;;;;;;4998660;28;20466;-75
2023/12/25 11:08:13;;;;;;;1.17;1.03;;;21.90;96.10;;;;;;4992984;28;20482;-77
2023/12/25 11:10:40;;;;;;;1.30;1.07;;;21.90;96.00;;;;;;4993550;28;20485;-77
2023/12/25 11:13:10;;;;;;;0.90;0.77;;;21.30;96.00;;;;;;4997263;28;20458;-77
2023/12/25 11:15:42;;;;;;;1.47;0.87;;;19.20;97.70;;;;;;4991479;28;20473;-76
2023/12/25 11:18:13;;;;;;;0.87;0.70;;;17.50;99.20;;;;;;4984892;28;20482;-77
2023/12/25 11:20:41;;;;;;;0.90;0.80;;;16.10;99.90;;;;;;4991815;28;20501;-79
2023/12/25 11:23:08;;;;;;;1.73;1.10;;;14.70;99.90;;;;;;4995076;28;20494;-76
2023/12/25 11:25:40;;;;;;;1.20;0.90;;;13.70;99.90;;;;;;4992548;28;20469;-77
2023/12/25 11:28:08;;;;;;;0.80;0.70;;;13.10;99.90;;;;;;4992341;28;20461;-77
2023/12/25 11:31:06;;;;;;;1.50;1.03;;;12.90;99.90;;;;;;4992817;28;20492;-77
2023/12/25 11:34:09;;;;;;;;;;;;;;;;;;;;;
2023/12/25 11:36:40;;;;;;;1.00;0.70;;;13.00;99.90;;;;;;4992175;28;20771;-75
2023/12/25 11:39:17;;;;;;;0.98;0.75;;;12.80;99.90;;;;;;4989037;28;20234;-77
2023/12/25 11:42:02;;;;;;;1.00;0.70;;;13.20;99.90;;;;;;5000272;28;20229;-76
2023/12/25 11:44:42;;;;;;;0.90;0.70;;;13.30;99.90;;;;;;5007308;28;20237;-76
2023/12/25 11:47:17;;;;;;;0.80;0.70;;;13.30;99.90;;;;;;4992152;28;20271;-77
2023/12/25 11:49:44;;;;;;;0.90;0.70;;;13.10;99.90;;;;;;4991761;28;20655;-76
2023/12/25 11:52:14;;;;;;;0.80;0.70;;;12.70;99.90;;;;;;4992030;28;20738;-77
2023/12/25 11:54:50;;;;;;;1.10;0.70;;;12.50;99.90;;;;;;4994249;28;20680;-77
2023/12/25 11:57:18;;;;;;;0.82;0.75;;;12.50;99.90;;;;;;4991454;28;20672;-77
2023/12/25 11:59:46;;;;;;;0.90;0.80;;;12.30;99.90;;;;;;4991140;28;20250;-77
2023/12/25 12:02:17;;;;;;;1.20;1.00;;;12.10;99.90;;;;;;4991346;28;20262;-77
2023/12/25 12:04:44;;;;;;;1.02;0.73;;;11.80;99.90;;;;;;4988530;28;20215;-76
2023/12/25 12:07:10;;;;;;;0.90;0.70;;;11.70;99.90;;;;;;4991351;28;20207;-76
2023/12/25 12:09:37;;;;;;;0.90;0.77;;;11.70;99.90;;;;;;4991315;28;20216;-77
2023/12/25 12:12:05;;;;;;;0.90;0.80;;;11.70;99.90;;;;;;4991650;28;20267;-76
2023/12/25 12:14:32;;;;;;;1.00;0.73;;;11.80;99.90;;;;;;4995275;28;20203;-77
2023/12/25 12:16:58;;;;;;;0.90;0.70;;;11.60;99.90;;;;;;4990984;28;20219;-77
2023/12/25 12:19:27;;;;;;;0.80;0.70;;;11.60;99.90;;;;;;4991011;28;20249;-77
2023/12/25 12:21:54;;;;;;;1.00;0.90;;;11.60;99.90;;;;;;4990781;28;20227;-77
2023/12/25 12:24:25;;;;;;;1.10;0.90;;;11.60;99.90;;;;;;4991428;28;20200;-77
2023/12/25 12:26:52;;;;;;;1.15;0.82;;;11.50;99.90;;;;;;4991055;28;20211;-77
2023/12/25 12:29:19;;;;;;;1.77;1.02;;;11.40;99.90;;;;;;4991616;28;20576;-77
2023/12/25 12:31:46;;;;;;;1.05;0.80;;;11.30;99.90;;;;;;4990771;28;20266;-77
2023/12/25 12:34:13;;;;;;;1.15;0.73;;;11.20;99.90;;;;;;4991403;28;20207;-77
2023/12/25 12:36:41;;;;;;;0.80;0.73;;;11.20;99.90;;;;;;4991431;28;20218;-77
2023/12/25 12:39:07;;;;;;;1.20;1.00;;;11.20;99.90;;;;;;4986953;28;20219;-77
2023/12/25 12:41:34;;;;;;;0.90;0.73;;;11.10;99.90;;;;;;4991255;28;20238;-77
2023/12/25 12:44:01;;;;;;;1.35;0.93;;;11.10;99.90;;;;;;4983464;28;20678;-77
2023/12/25 12:46:29;;;;;;;1.10;0.90;;;11.00;99.90;;;;;;4989345;28;20207;-77
2023/12/25 12:48:56;;;;;;;1.02;0.85;;;11.00;99.90;;;;;;4990770;28;20230;-77
2023/12/25 12:51:25;;;;;;;1.20;0.80;;;11.00;99.90;;;;;;4991095;28;20254;-77
2023/12/25 12:53:53;;;;;;;1.13;0.90;;;11.10;99.90;;;;;;4990855;28;20214;-77
2023/12/25 12:56:20;;;;;;;0.90;0.80;;;11.10;99.90;;;;;;4991208;28;20212;-77
2023/12/25 12:58:47;;;;;;;0.95;0.80;;;11.10;99.90;;;;;;4990723;28;20235;-77
2023/12/25 13:01:14;;;;;;;0.90;0.80;;;11.10;99.90;;;;;;4991274;28;20239;-77
2023/12/25 13:03:42;;;;;;;1.45;1.00;;;11.10;99.90;;;;;;4993120;28;20824;-77
2023/12/25 13:06:09;;;;;;;1.25;0.95;;;11.10;99.90;;;;;;4991313;28;20210;-78
2023/12/25 13:08:35;;;;;;;1.58;0.75;;;11.00;99.90;;;;;;4988301;28;20207;-77
2023/12/25 13:11:04;;;;;;;1.13;0.88;;;11.00;99.90;;;;;;4983827;28;20723;-77
2023/12/25 13:13:31;;;;;;;1.00;0.70;;;11.00;99.90;;;;;;4993262;28;20210;-77
2023/12/25 13:15:58;;;;;;;1.00;0.80;;;11.00;99.90;;;;;;5003122;28;20211;-77
2023/12/25 13:18:24;;;;;;;1.98;0.90;;;11.00;99.90;;;;;;5000704;28;20242;-77
2023/12/25 13:20:52;;;;;;;0.82;0.77;;;11.00;99.90;;;;;;4998036;28;20238;-77
2023/12/25 13:23:18;;;;;;;1.10;0.80;;;11.00;99.90;;;;;;5003566;28;20288;-76
2023/12/25 13:25:45;;;;;;;0.90;0.70;;;10.90;99.90;;;;;;4996938;28;20876;-77
2023/12/25 13:28:13;;;;;;;1.00;0.70;;;10.90;99.90;;;;;;4996869;28;20207;-78
2023/12/25 13:30:40;;;;;;;0.90;0.70;;;11.00;99.90;;;;;;5002258;28;20227;-78
2023/12/25 13:33:07;;;;;;;0.90;0.80;;;11.00;99.90;;;;;;5004277;28;20230;-77
2023/12/25 13:35:34;;;;;;;1.08;0.80;;;11.00;99.90;;;;;;5003522;28;20269;-77
2023/12/25 13:38:00;;;;;;;1.35;0.80;;;11.00;99.90;;;;;;5004066;28;20227;-78
2023/12/25 13:40:27;;;;;;;1.00;0.82;;;11.00;99.90;;;;;;4999316;28;20242;-78
2023/12/25 13:42:54;;;;;;;0.90;0.80;;;11.00;99.90;;;;;;5000997;28;20222;-78
2023/12/25 13:45:22;;;;;;;0.80;0.70;;;10.90;99.90;;;;;;5008609;28;20217;-78
2023/12/25 13:47:49;;;;;;;0.90;0.80;;;10.90;99.90;;;;;;5005584;28;20211;-78
2023/12/25 13:50:15;;;;;;;0.80;0.80;;;10.80;99.90;;;;;;5009758;28;20199;-78
2023/12/25 13:52:42;;;;;;;1.00;0.70;;;10.80;99.90;;;;;;5001426;28;20211;-78
2023/12/25 13:55:09;;;;;;;2.80;0.90;;;10.80;99.90;;;;;;5004328;28;20218;-78
2023/12/25 13:57:36;;;;;;;1.20;0.77;;;10.80;99.90;;;;;;5006881;28;20414;-78
2023/12/25 14:00:05;;;;;;;0.90;0.73;;;10.70;99.90;;;;;;5004337;28;20204;-78
2023/12/25 14:02:34;;;;;;;0.90;0.77;;;10.60;99.90;;;;;;5004469;28;20727;-78
2023/12/25 14:05:01;;;;;;;0.95;0.75;;;10.70;99.90;;;;;;5007732;28;20680;-78
2023/12/25 14:07:27;;;;;;;1.55;0.80;;;10.80;99.90;;;;;;5008303;28;20298;-78
2023/12/25 14:09:54;;;;;;;1.95;0.90;;;10.80;99.90;;;;;;4994552;28;20215;-77
2023/12/25 14:12:21;;;;;;;1.00;0.90;;;10.80;99.90;;;;;;4999252;28;20222;-77
2023/12/25 14:14:47;;;;;;;0.90;0.80;;;10.80;99.90;;;;;;4997591;28;20211;-77
2023/12/25 14:17:14;;;;;;;0.80;0.63;;;10.80;99.90;;;;;;5003317;28;20210;-77
2023/12/25 14:19:42;;;;;;;1.48;0.82;;;10.80;99.90;;;;;;4995511;28;20254;-77
2023/12/25 14:22:09;;;;;;;1.30;1.02;;;10.80;99.90;;;;;;5000381;28;20231;-77
2023/12/25 14:24:38;;;;;;;0.90;0.80;;;10.70;99.90;;;;;;4995703;28;20241;-77
2023/12/25 14:27:06;;;;;;;1.02;0.77;;;10.60;99.90;;;;;;4997836;28;20265;-77
2023/12/25 14:29:32;;;;;;;1.00;0.80;;;10.60;99.90;;;;;;4994136;28;20565;-77
2023/12/25 14:31:59;;;;;;;0.80;0.70;;;10.50;99.90;;;;;;4999698;28;20234;-77
2023/12/25 14:34:26;;;;;;;1.00;0.80;;;10.50;99.90;;;;;;4998224;28;20210;-77
2023/12/25 14:36:54;;;;;;;1.33;1.02;;;10.50;99.90;;;;;;4998869;28;20218;-76
2023/12/25 14:39:21;;;;;;;0.80;0.80;;;10.50;99.90;;;;;;4994056;28;20316;-78
2023/12/25 14:41:48;;;;;;;1.70;0.98;;;10.60;99.90;;;;;;4994072;28;20230;-77
2023/12/25 14:44:15;;;;;;;1.33;1.08;;;10.50;99.90;;;;;;4993786;28;20318;-77
2023/12/25 14:46:42;;;;;;;1.20;0.93;;;10.40;99.90;;;;;;4989027;28;20218;-76
2023/12/25 14:49:08;;;;;;;1.00;0.80;;;10.40;99.90;;;;;;4990312;28;20219;-78
2023/12/25 14:51:35;;;;;;;0.85;0.80;;;10.30;99.90;;;;;;4988572;28;20250;-77
2023/12/25 14:54:03;;;;;;;0.93;0.85;;;10.30;99.90;;;;;;4993702;28;20222;-78
2023/12/25 14:56:30;;;;;;;0.93;0.82;;;10.30;99.90;;;;;;4994410;28;20222;-78
2023/12/25 14:58:57;;;;;;;1.02;0.70;;;10.30;99.90;;;;;;4996000;28;20223;-77
2023/12/25 15:01:24;;;;;;;0.90;0.77;;;10.30;99.90;;;;;;4994755;28;20222;-77
2023/12/25 15:03:50;;;;;;;1.23;0.90;;;10.20;99.90;;;;;;4996752;28;20677;-78
2023/12/25 15:06:17;;;;;;;1.00;0.90;;;10.20;99.90;;;;;;4999167;28;20207;-77
2023/12/25 15:08:44;;;;;;;1.00;0.70;;;10.20;99.90;;;;;;4999581;28;20247;-77
2023/12/25 15:11:12;;;;;;;1.20;1.10;;;10.10;99.90;;;;;;4992840;28;20234;-77
2023/12/25 15:13:40;;;;;;;1.52;1.20;;;10.10;99.90;;;;;;4999136;28;20218;-75
2023/12/25 15:16:07;;;;;;;2.28;1.63;;;10.00;99.90;;;;;;4996178;28;20303;-78
2023/12/25 15:18:34;;;;;;;1.95;1.15;;;10.00;99.90;;;;;;4999596;28;20229;-77
2023/12/25 15:21:01;;;;;;;1.20;1.00;;;10.00;99.90;;;;;;4998573;28;20230;-77
2023/12/25 15:23:28;;;;;;;1.10;0.90;;;9.90;99.90;;;;;;4995851;28;20207;-77
2023/12/25 15:25:54;;;;;;;3.33;1.30;;;9.90;99.90;;;;;;4993967;28;20207;-77
2023/12/25 15:28:22;;;;;;;1.10;1.00;;;9.80;99.90;;;;;;4995899;28;20236;-78
2023/12/25 15:30:49;;;;;;;1.40;1.25;;;9.80;99.90;;;;;;4993095;28;20226;-78
2023/12/25 15:33:16;;;;;;;1.25;1.08;;;9.70;99.90;;;;;;4995390;28;20262;-78
2023/12/25 15:35:43;;;;;;;1.20;0.93;;;9.70;99.90;;;;;;4992974;28;20682;-78
2023/12/25 15:38:09;;;;;;;1.00;0.90;;;9.60;99.90;;;;;;4999803;28;20214;-77
2023/12/25 15:40:36;;;;;;;1.20;1.00;;;9.60;99.90;;;;;;4993533;28;20284;-78
2023/12/25 15:43:03;;;;;;;0.90;0.80;;;9.60;99.90;;;;;;5001622;28;20228;-78
2023/12/25 15:45:31;;;;;;;1.58;1.10;;;9.50;99.90;;;;;;4994283;28;20219;-78
2023/12/25 15:47:58;;;;;;;1.10;1.00;;;9.60;99.90;;;;;;4996167;28;20214;-77
2023/12/25 15:50:24;;;;;;;1.25;1.13;;;9.50;99.90;;;;;;4998551;28;20197;-78
2023/12/25 15:52:51;;;;;;;0.88;0.70;;;9.50;99.90;;;;;;4997651;28;20682;-78
2023/12/25 15:55:18;;;;;;;1.17;1.00;;;9.40;99.90;;;;;;5000000;28;20246;-78
2023/12/25 15:57:47;;;;;;;1.10;0.90;;;9.40;99.90;;;;;;4992252;28;20733;-78
2023/12/25 16:00:15;;;;;;;1.20;1.10;;;9.40;99.90;;;;;;4998598;28;20329;-78
2023/12/25 16:02:43;;;;;;;1.85;0.90;;;9.40;99.90;;;;;;4996883;28;20720;-78
2023/12/25 16:05:10;;;;;;;1.27;1.10;;;9.50;99.90;;;;;;4998343;28;20338;-77
2023/12/25 16:07:37;;;;;;;0.90;0.80;;;9.50;99.90;;;;;;4995247;28;20218;-78
2023/12/25 16:10:04;;;;;;;2.10;1.10;;;9.50;99.90;;;;;;4991852;28;20214;-78
2023/12/25 16:12:31;;;;;;;1.33;0.90;;;9.50;99.90;;;;;;4992145;28;20719;-78
2023/12/25 16:14:58;;;;;;;1.30;1.00;;;9.50;99.90;;;;;;4996878;28;20217;-78
2023/12/25 16:17:25;;;;;;;0.80;0.80;;;9.50;99.90;;;;;;4991651;28;20218;-78
2023/12/25 16:19:53;;;;;;;1.00;0.90;;;9.50;99.90;;;;;;4996058;28;20690;-78
2023/12/25 16:22:20;;;;;;;1.83;1.25;;;9.50;99.90;;;;;;4995780;28;20281;-78
2023/12/25 16:24:47;;;;;;;1.02;0.93;;;9.50;99.90;;;;;;4994180;28;20301;-78
2023/12/25 16:27:14;;;;;;;1.55;1.40;;;9.50;99.90;;;;;;4995311;28;20294;-78
2023/12/25 16:29:41;;;;;;;5.40;1.25;;;9.40;99.90;;;;;;4993802;28;20222;-78
2023/12/25 16:32:07;;;;;;;1.02;0.90;;;9.40;99.90;;;;;;4992620;28;20234;-78
2023/12/25 16:34:34;;;;;;;0.90;0.80;;;9.40;99.90;;;;;;4997019;28;20213;-78
2023/12/25 16:37:02;;;;;;;1.20;0.88;;;9.40;99.90;;;;;;4991875;28;20207;-78
2023/12/25 16:39:29;;;;;;;0.93;0.80;;;9.30;99.90;;;;;;4993861;28;20225;-77
2023/12/25 16:41:55;;;;;;;1.00;0.90;;;9.30;99.90;;;;;;4995742;28;20226;-77
2023/12/25 16:44:22;;;;;;;0.80;0.80;;;9.30;99.90;;;;;;4994090;28;20591;-77
2023/12/25 16:46:49;;;;;;;0.90;0.75;;;9.30;99.90;;;;;;4993485;28;20214;-77
2023/12/25 16:49:17;;;;;;;1.00;0.82;;;9.20;99.90;;;;;;4995675;28;20206;-78
2023/12/25 16:51:43;;;;;;;1.27;1.17;;;9.20;99.90;;;;;;4990585;28;20228;-77
2023/12/25 16:54:13;;;;;;;1.40;1.00;;;9.20;99.90;;;;;;5000270;28;20213;-78
2023/12/25 16:56:39;;;;;;;1.30;0.90;;;9.20;99.90;;;;;;4996616;28;20212;-78
2023/12/25 16:59:06;;;;;;;2.10;1.05;;;9.20;99.90;;;;;;4996324;28;20234;-78
2023/12/25 17:01:33;;;;;;;1.05;0.90;;;9.20;99.90;;;;;;4998013;28;20233;-77
2023/12/25 17:04:00;;;;;;;0.90;0.80;;;9.20;99.90;;;;;;4998796;28;20689;-78
2023/12/25 17:06:27;;;;;;;1.05;0.70;;;9.20;99.90;;;;;;5000083;28;20567;-78
2023/12/25 17:08:55;;;;;;;1.55;1.02;;;9.10;99.90;;;;;;4997197;28;20214;-78
2023/12/25 17:11:23;;;;;;;1.02;0.90;;;9.10;99.90;;;;;;4997668;28;20238;-78
2023/12/25 17:13:53;;;;;;;1.00;0.90;;;9.00;99.90;;;;;;4996973;28;20268;-78